sensor_id;sensor_type;location;lat;lon;timestamp;temperature;humidity
17859;DHT22;35426;30.698;104.050;2023-12-07T00:02:34;9.80;99.90
17859;DHT22;35426;30.698;104.050;2023-12-07T00:05:09;9.80;99.90
17859;DHT22;35426;30.698;104.050;2023-12-07T00:07:47;10.00;99.90
17859;DHT22;35426;30.698;104.050;2023-12-07T00:10:21;10.20;99.90
17859;DHT22;35426;30.698;104.050;2023-12-07T00:12:57;10.30;99.90
17859;DHT22;35426;30.698;104.050;2023-12-07T00:15:32;10.40;99.90
17859;DHT22;35426;30.698;104.050;2023-12-07T00:18:10;10.40;99.90
17859;DHT22;35426;30.698;104.050;2023-12-07T00:20:44;10.40;99.90
17859;DHT22;35426;30.698;104.050;2023-12-07T00:23:19;10.50;99.90
17859;DHT22;35426;30.698;104.050;2023-12-07T00:25:53;10.70;99.90
17859;DHT22;35426;30.698;104.050;2023-12-07T00:28:31;10.90;99.90
17859;DHT22;35426;30.698;104.050;2023-12-07T00:31:05;11.10;99.90
17859;DHT22;35426;30.698;104.050;2023-12-07T00:33:46;11.30;99.90
17859;DHT22;35426;30.698;104.050;2023-12-07T00:36:22;11.40;99.90
17859;DHT22;35426;30.698;104.050;2023-12-07T00:39:06;11.50;99.90
17859;DHT22;35426;30.698;104.050;2023-12-07T00:41:45;11.30;99.90
17859;DHT22;35426;30.698;104.050;2023-12-07T00:44:22;11.50;99.90
17859;DHT22;35426;30.698;104.050;2023-12-07T00:46:56;11.60;99.90
17859;DHT22;35426;30.698;104.050;2023-12-07T00:49:36;11.70;99.90
17859;DHT22;35426;30.698;104.050;2023-12-07T00:52:12;11.70;99.90
17859;DHT22;35426;30.698;104.050;2023-12-07T00:54:46;11.90;99.90
17859;DHT22;35426;30.698;104.050;2023-12-07T00:57:20;12.00;99.90
17859;DHT22;35426;30.698;104.050;2023-12-07T00:59:54;11.90;99.90
17859;DHT22;35426;30.698;104.050;2023-12-07T01:02:28;12.00;99.90
17859;DHT22;35426;30.698;104.050;2023-12-07T01:05:05;12.40;99.90
17859;DHT22;35426;30.698;104.050;2023-12-07T01:07:40;12.70;99.90
17859;DHT22;35426;30.698;104.050;2023-12-07T01:10:18;12.90;99.90
17859;DHT22;35426;30.698;104.050;2023-12-07T01:12:52;13.00;99.90
17859;DHT22;35426;30.698;104.050;2023-12-07T01:15:26;13.10;99.90
17859;DHT22;35426;30.698;104.050;2023-12-07T01:18:00;13.20;99.90
17859;DHT22;35426;30.698;104.050;2023-12-07T01:20:37;13.40;99.90
17859;DHT22;35426;30.698;104.050;2023-12-07T01:23:12;13.30;99.90
17859;DHT22;35426;30.698;104.050;2023-12-07T01:25:46;13.40;99.90
17859;DHT22;35426;30.698;104.050;2023-12-07T01:28:19;12.90;99.90
17859;DHT22;35426;30.698;104.050;2023-12-07T01:30:53;12.80;99.90
17859;DHT22;35426;30.698;104.050;2023-12-07T01:33:28;12.90;99.90
17859;DHT22;35426;30.698;104.050;2023-12-07T01:36:07;12.70;99.90
17859;DHT22;35426;30.698;104.050;2023-12-07T01:38:42;12.70;99.90
17859;DHT22;35426;30.698;104.050;2023-12-07T01:41:16;12.90;99.90
17859;DHT22;35426;30.698;104.050;2023-12-07T01:43:51;12.90;99.90
17859;DHT22;35426;30.698;104.050;2023-12-07T01:46:25;12.80;99.90
17859;DHT22;35426;30.698;104.050;2023-12-07T01:49:04;12.80;99.90
17859;DHT22;35426;30.698;104.050;2023-12-07T01:51:40;13.10;99.90
17859;DHT22;35426;30.698;104.050;2023-12-07T01:54:14;13.40;99.90
17859;DHT22;35426;30.698;104.050;2023-12-07T01:56:48;13.60;99.90
17859;DHT22;35426;30.698;104.050;2023-12-07T01:59:23;13.50;99.90
17859;DHT22;35426;30.698;104.050;2023-12-07T02:01:57;13.40;99.90
17859;DHT22;35426;30.698;104.050;2023-12-07T02:04:31;13.40;99.90
17859;DHT22;35426;30.698;104.050;2023-12-07T02:07:09;13.40;99.90
17859;DHT22;35426;30.698;104.050;2023-12-07T02:09:43;13.60;99.90
17859;DHT22;35426;30.698;104.050;2023-12-07T02:12:18;13.50;99.90
17859;DHT22;35426;30.698;104.050;2023-12-07T02:14:52;13.70;99.90
17859;DHT22;35426;30.698;104.050;2023-12-07T02:17:35;13.70;99.90
17859;DHT22;35426;30.698;104.050;2023-12-07T02:20:23;14.00;99.90
17859;DHT22;35426;30.698;104.050;2023-12-07T02:23:15;14.10;99.90
17859;DHT22;35426;30.698;104.050;2023-12-07T02:26:11;14.20;99.90
17859;DHT22;35426;30.698;104.050;2023-12-07T02:28:49;14.00;99.90
17859;DHT22;35426;30.698;104.050;2023-12-07T02:31:24;14.10;99.90
17859;DHT22;35426;30.698;104.050;2023-12-07T02:33:57;14.10;99.90
17859;DHT22;35426;30.698;104.050;2023-12-07T02:36:32;13.80;99.90
17859;DHT22;35426;30.698;104.050;2023-12-07T02:39:14;14.00;99.90
17859;DHT22;35426;30.698;104.050;2023-12-07T02:41:49;13.90;99.90
17859;DHT22;35426;30.698;104.050;2023-12-07T02:44:27;14.30;99.90
17859;DHT22;35426;30.698;104.050;2023-12-07T02:47:01;14.30;99.90
17859;DHT22;35426;30.698;104.050;2023-12-07T02:49:35;14.60;99.90
17859;DHT22;35426;30.698;104.050;2023-12-07T02:52:13;14.50;99.90
17859;DHT22;35426;30.698;104.050;2023-12-07T02:54:48;14.70;99.90
17859;DHT22;35426;30.698;104.050;2023-12-07T02:57:22;14.60;99.90
17859;DHT22;35426;30.698;104.050;2023-12-07T02:59:59;14.60;99.90
17859;DHT22;35426;30.698;104.050;2023-12-07T03:02:38;14.80;99.90
17859;DHT22;35426;30.698;104.050;2023-12-07T03:05:14;14.60;99.90
17859;DHT22;35426;30.698;104.050;2023-12-07T03:07:55;15.00;99.90
17859;DHT22;35426;30.698;104.050;2023-12-07T03:10:32;15.20;99.90
17859;DHT22;35426;30.698;104.050;2023-12-07T03:13:07;15.40;99.90
17859;DHT22;35426;30.698;104.050;2023-12-07T03:15:44;14.80;99.90
17859;DHT22;35426;30.698;104.050;2023-12-07T03:18:18;15.00;99.90
17859;DHT22;35426;30.698;104.050;2023-12-07T03:20:52;15.30;99.90
17859;DHT22;35426;30.698;104.050;2023-12-07T03:23:27;15.50;99.90
17859;DHT22;35426;30.698;104.050;2023-12-07T03:26:01;15.20;99.90
17859;DHT22;35426;30.698;104.050;2023-12-07T03:28:44;15.30;99.90
17859;DHT22;35426;30.698;104.050;2023-12-07T03:31:20;15.10;99.90
17859;DHT22;35426;30.698;104.050;2023-12-07T03:33:54;15.30;99.90
17859;DHT22;35426;30.698;104.050;2023-12-07T03:36:30;15.90;99.90
17859;DHT22;35426;30.698;104.050;2023-12-07T03:39:04;15.90;99.90
17859;DHT22;35426;30.698;104.050;2023-12-07T03:41:38;15.80;99.90
17859;DHT22;35426;30.698;104.050;2023-12-07T03:44:13;15.80;99.90
17859;DHT22;35426;30.698;104.050;2023-12-07T03:46:50;15.90;99.90
17859;DHT22;35426;30.698;104.050;2023-12-07T03:49:24;15.60;99.90
17859;DHT22;35426;30.698;104.050;2023-12-07T03:51:58;15.60;99.90
17859;DHT22;35426;30.698;104.050;2023-12-07T03:54:33;15.70;99.90
17859;DHT22;35426;30.698;104.050;2023-12-07T03:57:09;16.30;99.90
17859;DHT22;35426;30.698;104.050;2023-12-07T03:59:43;16.10;99.90
17859;DHT22;35426;30.698;104.050;2023-12-07T04:02:20;16.00;99.90
17859;DHT22;35426;30.698;104.050;2023-12-07T04:04:54;15.90;99.90
17859;DHT22;35426;30.698;104.050;2023-12-07T04:07:33;16.00;99.90
17859;DHT22;35426;30.698;104.050;2023-12-07T04:10:07;15.70;99.90
17859;DHT22;35426;30.698;104.050;2023-12-07T04:12:41;16.10;99.90
17859;DHT22;35426;30.698;104.050;2023-12-07T04:15:17;16.10;99.90
17859;DHT22;35426;30.698;104.050;2023-12-07T04:17:53;15.90;99.90
17859;DHT22;35426;30.698;104.050;2023-12-07T04:20:27;16.20;99.90
17859;DHT22;35426;30.698;104.050;2023-12-07T04:23:00;16.40;99.90
17859;DHT22;35426;30.698;104.050;2023-12-07T04:25:34;16.40;99.90
17859;DHT22;35426;30.698;104.050;2023-12-07T04:28:08;15.90;99.90
17859;DHT22;35426;30.698;104.050;2023-12-07T04:30:42;16.10;99.90
17859;DHT22;35426;30.698;104.050;2023-12-07T04:33:21;16.20;99.90
17859;DHT22;35426;30.698;104.050;2023-12-07T04:35:55;16.50;99.90
17859;DHT22;35426;30.698;104.050;2023-12-07T04:38:29;16.20;99.90
17859;DHT22;35426;30.698;104.050;2023-12-07T04:41:03;16.10;99.90
17859;DHT22;35426;30.698;104.050;2023-12-07T04:43:38;16.00;99.90
17859;DHT22;35426;30.698;104.050;2023-12-07T04:46:12;16.70;99.90
17859;DHT22;35426;30.698;104.050;2023-12-07T04:48:49;16.30;99.90
17859;DHT22;35426;30.698;104.050;2023-12-07T04:51:24;16.10;99.90
17859;DHT22;35426;30.698;104.050;2023-12-07T04:53:58;15.90;99.90
17859;DHT22;35426;30.698;104.050;2023-12-07T04:56:45;15.80;99.90
17859;DHT22;35426;30.698;104.050;2023-12-07T04:59:18;16.00;99.90
17859;DHT22;35426;30.698;104.050;2023-12-07T05:01:52;15.90;99.90
17859;DHT22;35426;30.698;104.050;2023-12-07T05:04:27;16.20;99.90
17859;DHT22;35426;30.698;104.050;2023-12-07T05:07:01;16.30;99.90
17859;DHT22;35426;30.698;104.050;2023-12-07T05:09:36;16.20;99.90
17859;DHT22;35426;30.698;104.050;2023-12-07T05:12:11;16.40;99.90
17859;DHT22;35426;30.698;104.050;2023-12-07T05:14:45;16.00;99.90
17859;DHT22;35426;30.698;104.050;2023-12-07T05:17:19;15.80;99.90
17859;DHT22;35426;30.698;104.050;2023-12-07T05:19:58;15.90;99.90
17859;DHT22;35426;30.698;104.050;2023-12-07T05:22:33;15.90;99.90
17859;DHT22;35426;30.698;104.050;2023-12-07T05:25:07;15.90;99.90
17859;DHT22;35426;30.698;104.050;2023-12-07T05:27:41;16.10;99.90
17859;DHT22;35426;30.698;104.050;2023-12-07T05:30:15;16.50;99.90
17859;DHT22;35426;30.698;104.050;2023-12-07T05:32:49;16.40;99.90
17859;DHT22;35426;30.698;104.050;2023-12-07T05:35:26;16.50;99.90
17859;DHT22;35426;30.698;104.050;2023-12-07T05:38:00;16.60;99.90
17859;DHT22;35426;30.698;104.050;2023-12-07T05:40:34;16.40;99.90
17859;DHT22;35426;30.698;104.050;2023-12-07T05:43:08;16.30;99.90
17859;DHT22;35426;30.698;104.050;2023-12-07T05:45:42;16.50;99.90
17859;DHT22;35426;30.698;104.050;2023-12-07T05:48:16;16.60;99.90
17859;DHT22;35426;30.698;104.050;2023-12-07T05:50:53;16.60;99.90
17859;DHT22;35426;30.698;104.050;2023-12-07T05:53:27;16.80;99.90
17859;DHT22;35426;30.698;104.050;2023-12-07T05:56:01;16.90;99.90
17859;DHT22;35426;30.698;104.050;2023-12-07T05:58:36;16.80;99.90
17859;DHT22;35426;30.698;104.050;2023-12-07T06:01:10;16.80;99.90
17859;DHT22;35426;30.698;104.050;2023-12-07T06:03:45;16.80;99.90
17859;DHT22;35426;30.698;104.050;2023-12-07T06:06:21;16.80;99.90
17859;DHT22;35426;30.698;104.050;2023-12-07T06:08:54;16.70;99.90
17859;DHT22;35426;30.698;104.050;2023-12-07T06:11:28;16.60;99.90
17859;DHT22;35426;30.698;104.050;2023-12-07T06:14:04;16.50;99.90
17859;DHT22;35426;30.698;104.050;2023-12-07T06:16:38;16.60;99.90
17859;DHT22;35426;30.698;104.050;2023-12-07T06:19:12;16.40;99.90
17859;DHT22;35426;30.698;104.050;2023-12-07T06:21:48;16.20;99.90
17859;DHT22;35426;30.698;104.050;2023-12-07T06:24:23;16.40;99.90
17859;DHT22;35426;30.698;104.050;2023-12-07T06:26:57;16.70;99.90
17859;DHT22;35426;30.698;104.050;2023-12-07T06:29:33;16.70;99.90
17859;DHT22;35426;30.698;104.050;2023-12-07T06:32:07;16.90;99.90
17859;DHT22;35426;30.698;104.050;2023-12-07T06:34:42;16.70;99.90
17859;DHT22;35426;30.698;104.050;2023-12-07T06:37:18;16.80;99.90
17859;DHT22;35426;30.698;104.050;2023-12-07T06:39:52;17.00;99.90
17859;DHT22;35426;30.698;104.050;2023-12-07T06:42:26;17.00;99.90
17859;DHT22;35426;30.698;104.050;2023-12-07T06:45:00;17.10;99.90
17859;DHT22;35426;30.698;104.050;2023-12-07T06:47:33;17.60;99.90
17859;DHT22;35426;30.698;104.050;2023-12-07T06:50:08;17.70;99.90
17859;DHT22;35426;30.698;104.050;2023-12-07T06:52:44;17.60;99.90
17859;DHT22;35426;30.698;104.050;2023-12-07T06:55:18;17.30;99.90
17859;DHT22;35426;30.698;104.050;2023-12-07T06:57:55;17.30;99.90
17859;DHT22;35426;30.698;104.050;2023-12-07T07:00:29;17.30;99.90
17859;DHT22;35426;30.698;104.050;2023-12-07T07:03:04;17.30;99.90
17859;DHT22;35426;30.698;104.050;2023-12-07T07:05:38;17.50;99.90
17859;DHT22;35426;30.698;104.050;2023-12-07T07:08:14;17.30;99.90
17859;DHT22;35426;30.698;104.050;2023-12-07T07:10:49;17.10;99.90
17859;DHT22;35426;30.698;104.050;2023-12-07T07:13:23;17.00;99.90
17859;DHT22;35426;30.698;104.050;2023-12-07T07:15:56;16.90;99.90
17859;DHT22;35426;30.698;104.050;2023-12-07T07:18:30;16.90;99.90
17859;DHT22;35426;30.698;104.050;2023-12-07T07:21:04;16.60;99.90
17859;DHT22;35426;30.698;104.050;2023-12-07T07:23:40;16.60;99.90
17859;DHT22;35426;30.698;104.050;2023-12-07T07:26:14;16.50;99.90
17859;DHT22;35426;30.698;104.050;2023-12-07T07:28:48;16.30;99.90
17859;DHT22;35426;30.698;104.050;2023-12-07T07:31:22;16.20;99.90
17859;DHT22;35426;30.698;104.050;2023-12-07T07:33:56;16.00;99.90
17859;DHT22;35426;30.698;104.050;2023-12-07T07:36:30;15.60;99.90
17859;DHT22;35426;30.698;104.050;2023-12-07T07:39:06;15.40;99.90
17859;DHT22;35426;30.698;104.050;2023-12-07T07:41:40;15.50;99.90
17859;DHT22;35426;30.698;104.050;2023-12-07T07:44:18;15.30;99.90
17859;DHT22;35426;30.698;104.050;2023-12-07T07:46:52;15.30;99.90
17859;DHT22;35426;30.698;104.050;2023-12-07T07:49:26;15.20;99.90
17859;DHT22;35426;30.698;104.050;2023-12-07T07:52:00;15.40;99.90
17859;DHT22;35426;30.698;104.050;2023-12-07T07:54:38;15.40;99.90
17859;DHT22;35426;30.698;104.050;2023-12-07T07:57:12;15.50;99.90
17859;DHT22;35426;30.698;104.050;2023-12-07T07:59:46;15.50;99.90
17859;DHT22;35426;30.698;104.050;2023-12-07T08:02:21;15.50;99.90
17859;DHT22;35426;30.698;104.050;2023-12-07T08:04:55;15.50;99.90
17859;DHT22;35426;30.698;104.050;2023-12-07T08:07:29;15.70;99.90
17859;DHT22;35426;30.698;104.050;2023-12-07T08:10:05;15.60;99.90
17859;DHT22;35426;30.698;104.050;2023-12-07T08:12:41;15.80;99.90
17859;DHT22;35426;30.698;104.050;2023-12-07T08:15:15;15.80;99.90
17859;DHT22;35426;30.698;104.050;2023-12-07T08:17:48;15.90;99.90
17859;DHT22;35426;30.698;104.050;2023-12-07T08:20:23;15.80;99.90
17859;DHT22;35426;30.698;104.050;2023-12-07T08:22:58;15.80;99.90
17859;DHT22;35426;30.698;104.050;2023-12-07T08:25:34;16.00;99.90
17859;DHT22;35426;30.698;104.050;2023-12-07T08:28:07;15.60;99.90
17859;DHT22;35426;30.698;104.050;2023-12-07T08:30:41;15.60;99.90
17859;DHT22;35426;30.698;104.050;2023-12-07T08:33:15;15.50;99.90
17859;DHT22;35426;30.698;104.050;2023-12-07T08:35:49;15.50;99.90
17859;DHT22;35426;30.698;104.050;2023-12-07T08:38:25;15.60;99.90
17859;DHT22;35426;30.698;104.050;2023-12-07T08:41:02;15.50;99.90
17859;DHT22;35426;30.698;104.050;2023-12-07T08:43:36;15.50;99.90
17859;DHT22;35426;30.698;104.050;2023-12-07T08:46:10;15.70;99.90
17859;DHT22;35426;30.698;104.050;2023-12-07T08:48:44;15.60;99.90
17859;DHT22;35426;30.698;104.050;2023-12-07T08:51:19;15.70;99.90
17859;DHT22;35426;30.698;104.050;2023-12-07T08:53:52;15.40;99.90
17859;DHT22;35426;30.698;104.050;2023-12-07T08:56:29;15.60;99.90
17859;DHT22;35426;30.698;104.050;2023-12-07T08:59:03;15.50;99.90
17859;DHT22;35426;30.698;104.050;2023-12-07T09:01:36;15.60;99.90
17859;DHT22;35426;30.698;104.050;2023-12-07T09:04:10;15.50;99.90
17859;DHT22;35426;30.698;104.050;2023-12-07T09:06:44;15.50;99.90
17859;DHT22;35426;30.698;104.050;2023-12-07T09:09:19;15.50;99.90
17859;DHT22;35426;30.698;104.050;2023-12-07T09:11:55;15.50;99.90
17859;DHT22;35426;30.698;104.050;2023-12-07T09:14:29;15.50;99.90
17859;DHT22;35426;30.698;104.050;2023-12-07T09:17:06;15.70;99.90
17859;DHT22;35426;30.698;104.050;2023-12-07T09:19:40;15.80;99.90
17859;DHT22;35426;30.698;104.050;2023-12-07T09:22:14;15.80;99.90
17859;DHT22;35426;30.698;104.050;2023-12-07T09:24:54;15.70;99.90
17859;DHT22;35426;30.698;104.050;2023-12-07T09:27:30;15.60;99.90
17859;DHT22;35426;30.698;104.050;2023-12-07T09:30:05;15.60;99.90
17859;DHT22;35426;30.698;104.050;2023-12-07T09:32:43;15.50;99.90
17859;DHT22;35426;30.698;104.050;2023-12-07T09:35:16;15.30;99.90
17859;DHT22;35426;30.698;104.050;2023-12-07T09:37:52;15.10;99.90
17859;DHT22;35426;30.698;104.050;2023-12-07T09:40:26;15.10;99.90
17859;DHT22;35426;30.698;104.050;2023-12-07T09:43:03;15.00;99.90
17859;DHT22;35426;30.698;104.050;2023-12-07T09:45:40;14.90;99.90
17859;DHT22;35426;30.698;104.050;2023-12-07T09:48:14;14.80;99.90
17859;DHT22;35426;30.698;104.050;2023-12-07T09:50:49;14.80;99.90
17859;DHT22;35426;30.698;104.050;2023-12-07T09:53:24;14.80;99.90
17859;DHT22;35426;30.698;104.050;2023-12-07T09:55:59;14.70;99.90
17859;DHT22;35426;30.698;104.050;2023-12-07T09:58:34;14.70;99.90
17859;DHT22;35426;30.698;104.050;2023-12-07T10:01:13;14.70;99.90
17859;DHT22;35426;30.698;104.050;2023-12-07T10:03:48;14.60;99.90
17859;DHT22;35426;30.698;104.050;2023-12-07T10:06:22;14.60;99.90
17859;DHT22;35426;30.698;104.050;2023-12-07T10:09:04;14.50;99.90
17859;DHT22;35426;30.698;104.050;2023-12-07T10:11:48;14.40;99.90
17859;DHT22;35426;30.698;104.050;2023-12-07T10:14:24;14.30;99.90
17859;DHT22;35426;30.698;104.050;2023-12-07T10:16:59;14.30;99.90
17859;DHT22;35426;30.698;104.050;2023-12-07T10:19:33;14.30;99.90
17859;DHT22;35426;30.698;104.050;2023-12-07T10:22:15;14.30;99.90
17859;DHT22;35426;30.698;104.050;2023-12-07T10:24:49;14.40;99.90
17859;DHT22;35426;30.698;104.050;2023-12-07T10:27:22;14.30;99.90
17859;DHT22;35426;30.698;104.050;2023-12-07T10:30:01;14.40;99.90
17859;DHT22;35426;30.698;104.050;2023-12-07T10:32:38;14.40;99.90
17859;DHT22;35426;30.698;104.050;2023-12-07T10:35:12;14.50;99.90
17859;DHT22;35426;30.698;104.050;2023-12-07T10:37:46;14.30;99.90
17859;DHT22;35426;30.698;104.050;2023-12-07T10:40:20;14.30;99.90
17859;DHT22;35426;30.698;104.050;2023-12-07T10:42:56;14.30;99.90
17859;DHT22;35426;30.698;104.050;2023-12-07T10:45:32;14.30;99.90
17859;DHT22;35426;30.698;104.050;2023-12-07T10:48:08;14.30;99.90
17859;DHT22;35426;30.698;104.050;2023-12-07T10:50:45;14.30;99.90
17859;DHT22;35426;30.698;104.050;2023-12-07T10:53:27;14.30;99.90
17859;DHT22;35426;30.698;104.050;2023-12-07T10:56:03;14.30;99.90
17859;DHT22;35426;30.698;104.050;2023-12-07T10:58:38;14.20;99.90
17859;DHT22;35426;30.698;104.050;2023-12-07T11:01:16;14.20;99.90
17859;DHT22;35426;30.698;104.050;2023-12-07T11:03:51;14.20;99.90
17859;DHT22;35426;30.698;104.050;2023-12-07T11:06:26;14.20;99.90
17859;DHT22;35426;30.698;104.050;2023-12-07T11:09:08;14.20;99.90
17859;DHT22;35426;30.698;104.050;2023-12-07T11:11:54;14.30;99.90
17859;DHT22;35426;30.698;104.050;2023-12-07T11:14:31;14.20;99.90
17859;DHT22;35426;30.698;104.050;2023-12-07T11:17:09;14.20;99.90
17859;DHT22;35426;30.698;104.050;2023-12-07T11:19:48;14.30;99.90
17859;DHT22;35426;30.698;104.050;2023-12-07T11:22:21;14.30;99.90
17859;DHT22;35426;30.698;104.050;2023-12-07T11:24:57;14.40;99.90
17859;DHT22;35426;30.698;104.050;2023-12-07T11:27:35;14.20;99.90
17859;DHT22;35426;30.698;104.050;2023-12-07T11:30:12;14.20;99.90
17859;DHT22;35426;30.698;104.050;2023-12-07T11:32:50;14.10;99.90
17859;DHT22;35426;30.698;104.050;2023-12-07T11:35:25;14.10;99.90
17859;DHT22;35426;30.698;104.050;2023-12-07T11:38:06;14.10;99.90
17859;DHT22;35426;30.698;104.050;2023-12-07T11:40:43;14.10;99.90
17859;DHT22;35426;30.698;104.050;2023-12-07T11:43:19;14.10;99.90
17859;DHT22;35426;30.698;104.050;2023-12-07T11:46:04;14.10;99.90
17859;DHT22;35426;30.698;104.050;2023-12-07T11:48:45;14.10;99.90
17859;DHT22;35426;30.698;104.050;2023-12-07T11:51:21;14.10;99.90
17859;DHT22;35426;30.698;104.050;2023-12-07T11:53:55;14.10;99.90
17859;DHT22;35426;30.698;104.050;2023-12-07T11:56:29;14.20;99.90
17859;DHT22;35426;30.698;104.050;2023-12-07T11:59:03;14.10;99.90
17859;DHT22;35426;30.698;104.050;2023-12-07T12:01:40;14.20;99.90
17859;DHT22;35426;30.698;104.050;2023-12-07T12:04:24;14.20;99.90
17859;DHT22;35426;30.698;104.050;2023-12-07T12:07:00;14.10;99.90
17859;DHT22;35426;30.698;104.050;2023-12-07T12:09:34;14.10;99.90
17859;DHT22;35426;30.698;104.050;2023-12-07T12:12:08;14.10;99.90
17859;DHT22;35426;30.698;104.050;2023-12-07T12:14:44;14.30;99.90
17859;DHT22;35426;30.698;104.050;2023-12-07T12:17:19;14.30;99.90
17859;DHT22;35426;30.698;104.050;2023-12-07T12:19:56;14.30;99.90
17859;DHT22;35426;30.698;104.050;2023-12-07T12:22:32;14.30;99.90
17859;DHT22;35426;30.698;104.050;2023-12-07T12:25:08;14.30;99.90
17859;DHT22;35426;30.698;104.050;2023-12-07T12:27:44;14.20;99.90
17859;DHT22;35426;30.698;104.050;2023-12-07T12:30:18;14.10;99.90
17859;DHT22;35426;30.698;104.050;2023-12-07T12:32:55;14.00;99.90
17859;DHT22;35426;30.698;104.050;2023-12-07T12:35:34;14.10;99.90
17859;DHT22;35426;30.698;104.050;2023-12-07T12:38:10;14.10;99.90
17859;DHT22;35426;30.698;104.050;2023-12-07T12:40:59;14.20;99.90
17859;DHT22;35426;30.698;104.050;2023-12-07T12:43:35;14.20;99.90
17859;DHT22;35426;30.698;104.050;2023-12-07T12:46:10;14.40;99.90
17859;DHT22;35426;30.698;104.050;2023-12-07T12:48:54;14.40;99.90
17859;DHT22;35426;30.698;104.050;2023-12-07T12:51:32;14.30;99.90
17859;DHT22;35426;30.698;104.050;2023-12-07T12:54:07;14.30;99.90
17859;DHT22;35426;30.698;104.050;2023-12-07T12:56:52;14.30;99.90
17859;DHT22;35426;30.698;104.050;2023-12-07T12:59:26;14.30;99.90
17859;DHT22;35426;30.698;104.050;2023-12-07T13:02:00;14.40;99.90
17859;DHT22;35426;30.698;104.050;2023-12-07T13:04:36;14.50;99.90
17859;DHT22;35426;30.698;104.050;2023-12-07T13:07:13;14.50;99.90
17859;DHT22;35426;30.698;104.050;2023-12-07T13:09:48;14.40;99.90
17859;DHT22;35426;30.698;104.050;2023-12-07T13:12:22;14.30;99.90
17859;DHT22;35426;30.698;104.050;2023-12-07T13:14:58;14.20;99.90
17859;DHT22;35426;30.698;104.050;2023-12-07T13:17:34;14.20;99.90
17859;DHT22;35426;30.698;104.050;2023-12-07T13:20:08;14.00;99.90
17859;DHT22;35426;30.698;104.050;2023-12-07T13:22:45;13.90;99.90
17859;DHT22;35426;30.698;104.050;2023-12-07T13:25:19;14.00;99.90
17859;DHT22;35426;30.698;104.050;2023-12-07T13:27:54;13.80;99.90
17859;DHT22;35426;30.698;104.050;2023-12-07T13:30:31;13.80;99.90
17859;DHT22;35426;30.698;104.050;2023-12-07T13:33:06;13.70;99.90
17859;DHT22;35426;30.698;104.050;2023-12-07T13:35:56;13.80;99.90
17859;DHT22;35426;30.698;104.050;2023-12-07T13:38:37;13.80;99.90
17859;DHT22;35426;30.698;104.050;2023-12-07T13:41:11;13.70;99.90
17859;DHT22;35426;30.698;104.050;2023-12-07T13:43:45;13.70;99.90
17859;DHT22;35426;30.698;104.050;2023-12-07T13:46:19;13.60;99.90
17859;DHT22;35426;30.698;104.050;2023-12-07T13:48:55;13.60;99.90
17859;DHT22;35426;30.698;104.050;2023-12-07T13:51:30;13.80;99.90
17859;DHT22;35426;30.698;104.050;2023-12-07T13:54:06;13.90;99.90
17859;DHT22;35426;30.698;104.050;2023-12-07T13:57:00;13.90;99.90
17859;DHT22;35426;30.698;104.050;2023-12-07T13:59:35;13.80;99.90
17859;DHT22;35426;30.698;104.050;2023-12-07T14:02:10;13.80;99.90
17859;DHT22;35426;30.698;104.050;2023-12-07T14:04:44;13.80;99.90
17859;DHT22;35426;30.698;104.050;2023-12-07T14:07:22;13.80;99.90
17859;DHT22;35426;30.698;104.050;2023-12-07T14:10:01;13.70;99.90
17859;DHT22;35426;30.698;104.050;2023-12-07T14:12:35;13.60;99.90
17859;DHT22;35426;30.698;104.050;2023-12-07T14:15:11;13.50;99.90
17859;DHT22;35426;30.698;104.050;2023-12-07T14:17:55;13.60;99.90
17859;DHT22;35426;30.698;104.050;2023-12-07T14:20:30;13.50;99.90
17859;DHT22;35426;30.698;104.050;2023-12-07T14:23:25;13.40;99.90
17859;DHT22;35426;30.698;104.050;2023-12-07T14:26:10;13.60;99.90
17859;DHT22;35426;30.698;104.050;2023-12-07T14:28:47;13.70;99.90
17859;DHT22;35426;30.698;104.050;2023-12-07T14:31:21;13.70;99.90
17859;DHT22;35426;30.698;104.050;2023-12-07T14:33:55;13.80;99.90
17859;DHT22;35426;30.698;104.050;2023-12-07T14:36:29;13.90;99.90
17859;DHT22;35426;30.698;104.050;2023-12-07T14:39:03;14.00;99.90
17859;DHT22;35426;30.698;104.050;2023-12-07T14:41:40;13.80;99.90
17859;DHT22;35426;30.698;104.050;2023-12-07T14:44:15;13.80;99.90
17859;DHT22;35426;30.698;104.050;2023-12-07T14:46:58;13.80;99.90
17859;DHT22;35426;30.698;104.050;2023-12-07T14:49:51;13.80;99.90
17859;DHT22;35426;30.698;104.050;2023-12-07T14:52:25;13.80;99.90
17859;DHT22;35426;30.698;104.050;2023-12-07T14:55:00;13.70;99.90
17859;DHT22;35426;30.698;104.050;2023-12-07T14:57:36;13.70;99.90
17859;DHT22;35426;30.698;104.050;2023-12-07T15:00:11;13.70;99.90
17859;DHT22;35426;30.698;104.050;2023-12-07T15:02:45;13.60;99.90
17859;DHT22;35426;30.698;104.050;2023-12-07T15:05:30;13.70;99.90
17859;DHT22;35426;30.698;104.050;2023-12-07T15:08:05;13.60;99.90
17859;DHT22;35426;30.698;104.050;2023-12-07T15:10:40;13.60;99.90
17859;DHT22;35426;30.698;104.050;2023-12-07T15:13:17;13.50;99.90
17859;DHT22;35426;30.698;104.050;2023-12-07T15:15:51;13.50;99.90
17859;DHT22;35426;30.698;104.050;2023-12-07T15:18:29;13.60;99.90
17859;DHT22;35426;30.698;104.050;2023-12-07T15:21:06;13.60;99.90
17859;DHT22;35426;30.698;104.050;2023-12-07T15:23:42;13.60;99.90
17859;DHT22;35426;30.698;104.050;2023-12-07T15:26:16;13.60;99.90
17859;DHT22;35426;30.698;104.050;2023-12-07T15:28:52;13.50;99.90
17859;DHT22;35426;30.698;104.050;2023-12-07T15:31:27;13.60;99.90
17859;DHT22;35426;30.698;104.050;2023-12-07T15:34:02;13.60;99.90
17859;DHT22;35426;30.698;104.050;2023-12-07T15:36:37;13.50;99.90
17859;DHT22;35426;30.698;104.050;2023-12-07T15:39:11;13.60;99.90
17859;DHT22;35426;30.698;104.050;2023-12-07T15:41:47;13.60;99.90
17859;DHT22;35426;30.698;104.050;2023-12-07T15:44:25;13.50;99.90
17859;DHT22;35426;30.698;104.050;2023-12-07T15:47:01;13.30;99.90
17859;DHT22;35426;30.698;104.050;2023-12-07T15:49:36;13.20;99.90
17859;DHT22;35426;30.698;104.050;2023-12-07T15:52:10;13.20;99.90
17859;DHT22;35426;30.698;104.050;2023-12-07T15:54:44;13.20;99.90
17859;DHT22;35426;30.698;104.050;2023-12-07T15:57:18;13.20;99.90